createdAt,value
2019-03-21T00:01:59.270Z,5.50
2019-03-21T00:04:06.002Z,5.40
2019-03-21T00:06:12.979Z,5.50
2019-03-21T00:08:16.498Z,5.50
2019-03-21T00:10:30.096Z,5.50
2019-03-21T00:12:33.702Z,5.60
2019-03-21T00:15:01.929Z,5.60
2019-03-21T00:17:08.706Z,5.60
2019-03-21T00:19:12.264Z,5.60
2019-03-21T00:21:15.047Z,5.60
2019-03-21T00:23:18.647Z,5.70
2019-03-21T00:25:22.562Z,5.70
2019-03-21T00:27:26.128Z,5.80
2019-03-21T00:29:29.718Z,5.80
2019-03-21T00:31:32.527Z,5.90
2019-03-21T00:33:36.094Z,5.90
2019-03-21T00:35:38.878Z,5.80
2019-03-21T00:37:42.470Z,5.80
2019-03-21T00:39:45.177Z,5.80
2019-03-21T00:41:48.762Z,5.90
2019-03-21T00:43:51.552Z,5.90
2019-03-21T00:45:55.140Z,5.90
2019-03-21T00:47:58.172Z,6.00
2019-03-21T00:50:01.753Z,5.90
2019-03-21T00:52:04.512Z,6.00
2019-03-21T00:54:08.091Z,6.00
2019-03-21T00:56:10.877Z,6.00
2019-03-21T00:58:14.633Z,6.10
2019-03-21T01:00:21.402Z,6.10
2019-03-21T01:02:24.999Z,6.10
2019-03-21T01:04:28.160Z,6.20
2019-03-21T01:06:31.767Z,6.20
2019-03-21T01:08:34.591Z,6.20
2019-03-21T01:10:38.161Z,6.20
2019-03-21T01:12:40.939Z,6.20
2019-03-21T01:14:44.535Z,6.20
2019-03-21T01:16:47.396Z,6.20
2019-03-21T01:18:50.956Z,6.20
2019-03-21T01:20:53.762Z,6.10
2019-03-21T01:22:57.330Z,6.10
2019-03-21T01:25:00.158Z,6.10
2019-03-21T01:27:03.868Z,6.10
2019-03-21T01:29:07.468Z,6.10
2019-03-21T01:31:10.251Z,6.10
2019-03-21T01:33:13.853Z,6.20
2019-03-21T01:35:16.662Z,6.10
2019-03-21T01:37:20.235Z,6.10
2019-03-21T01:39:23.034Z,6.10
2019-03-21T01:41:26.627Z,6.10
2019-03-21T01:43:29.410Z,6.10
2019-03-21T01:45:32.971Z,6.10
2019-03-21T01:47:35.795Z,6.10
2019-03-21T01:49:39.369Z,6.10
2019-03-21T01:51:42.174Z,6.20
2019-03-21T01:53:45.745Z,6.20
2019-03-21T01:55:48.526Z,6.20
2019-03-21T01:57:52.127Z,6.10
2019-03-21T01:59:55.723Z,6.10
2019-03-21T02:01:58.539Z,6.10
2019-03-21T02:04:02.104Z,6.10
2019-03-21T02:06:04.883Z,6.10
2019-03-21T02:08:08.470Z,6.10
2019-03-21T02:10:12.782Z,6.10
2019-03-21T02:12:16.374Z,6.20
2019-03-21T02:14:19.154Z,6.20
2019-03-21T02:16:22.787Z,6.20
2019-03-21T02:18:26.356Z,6.30
2019-03-21T02:20:29.229Z,6.30
2019-03-21T02:22:32.795Z,6.30
2019-03-21T02:24:35.595Z,6.30
2019-03-21T02:26:39.155Z,6.30
2019-03-21T02:28:41.940Z,6.30
2019-03-21T02:30:50.266Z,6.30
2019-03-21T02:32:56.763Z,6.30
2019-03-21T02:35:00.544Z,6.30
2019-03-21T02:37:04.158Z,6.30
2019-03-21T02:39:07.907Z,6.30
2019-03-21T02:41:14.197Z,6.40
2019-03-21T02:43:17.822Z,6.40
2019-03-21T02:45:21.484Z,6.40
2019-03-21T02:47:25.051Z,6.30
2019-03-21T02:49:27.828Z,6.40
2019-03-21T02:51:31.560Z,6.30
2019-03-21T02:53:35.194Z,6.20
2019-03-21T02:55:38.772Z,6.20
2019-03-21T02:57:41.584Z,6.20
2019-03-21T02:59:45.177Z,6.30
2019-03-21T03:01:47.969Z,6.30
2019-03-21T03:03:51.607Z,6.30
2019-03-21T03:05:55.276Z,6.20
2019-03-21T03:07:59.081Z,6.20
2019-03-21T03:10:02.715Z,6.10
2019-03-21T03:12:06.319Z,6.20
2019-03-21T03:14:09.096Z,6.10
2019-03-21T03:16:12.679Z,6.20
2019-03-21T03:18:16.999Z,6.20
2019-03-21T03:20:20.651Z,6.30
2019-03-21T03:22:24.242Z,6.30
2019-03-21T03:24:27.044Z,6.40
2019-03-21T03:26:30.604Z,6.30
2019-03-21T03:28:37.818Z,6.30
2019-03-21T03:30:41.685Z,6.30
2019-03-21T03:32:45.390Z,6.40
2019-03-21T03:34:48.947Z,6.40
2019-03-21T03:36:51.736Z,6.40
2019-03-21T03:38:55.331Z,6.50
2019-03-21T03:41:02.207Z,6.50
2019-03-21T03:43:05.892Z,6.40
2019-03-21T03:45:12.566Z,6.40
2019-03-21T03:47:16.130Z,6.50
2019-03-21T03:49:18.918Z,6.50
2019-03-21T03:51:22.626Z,6.50
2019-03-21T03:53:26.306Z,6.50
2019-03-21T03:55:29.090Z,6.50
2019-03-21T03:57:32.929Z,6.50
2019-03-21T03:59:36.556Z,6.50
2019-03-21T04:01:41.058Z,6.60
2019-03-21T04:03:44.704Z,6.60
2019-03-21T04:05:48.330Z,6.60
2019-03-21T04:07:52.250Z,6.60
2019-03-21T04:09:56.006Z,6.60
2019-03-21T04:11:59.708Z,6.60
2019-03-21T04:14:03.379Z,6.60
2019-03-21T04:16:06.924Z,6.60
2019-03-21T04:18:09.722Z,6.60
2019-03-21T04:20:22.256Z,6.70
2019-03-21T04:22:25.846Z,6.70
2019-03-21T04:24:28.685Z,6.70
2019-03-21T04:26:36.635Z,6.70
2019-03-21T04:28:40.842Z,6.70
2019-03-21T04:30:46.075Z,6.70
2019-03-21T04:32:49.639Z,6.70
2019-03-21T04:34:52.424Z,6.70
2019-03-21T04:36:56.081Z,6.70
2019-03-21T04:38:59.654Z,6.70
2019-03-21T04:41:02.449Z,6.70
2019-03-21T04:43:06.088Z,6.70
2019-03-21T04:45:15.426Z,6.80
2019-03-21T04:47:18.985Z,6.80
2019-03-21T04:49:21.768Z,6.90
2019-03-21T04:51:25.371Z,6.90
2019-03-21T04:53:28.151Z,6.90
2019-03-21T04:55:31.707Z,6.90
2019-03-21T04:57:34.527Z,7.00
2019-03-21T04:59:38.112Z,6.90
2019-03-21T05:01:40.892Z,6.90
2019-03-21T05:03:44.442Z,6.90
2019-03-21T05:05:47.252Z,6.90
2019-03-21T05:07:50.866Z,6.90
2019-03-21T05:09:53.640Z,6.90
2019-03-21T05:11:57.194Z,7.00
2019-03-21T05:14:00.012Z,7.00
2019-03-21T05:16:14.086Z,6.90
2019-03-21T05:18:18.199Z,6.90
2019-03-21T05:20:24.858Z,6.90
2019-03-21T05:22:29.592Z,6.90
2019-03-21T05:24:33.209Z,6.90
2019-03-21T05:26:36.036Z,6.90
2019-03-21T05:28:39.634Z,7.00
2019-03-21T05:30:59.074Z,7.00
2019-03-21T05:33:02.804Z,7.00
2019-03-21T05:35:08.984Z,7.00
2019-03-21T05:37:12.560Z,7.10
2019-03-21T05:39:15.379Z,7.10
2019-03-21T05:41:19.015Z,7.10
2019-03-21T05:43:34.406Z,7.20
2019-03-21T05:45:38.005Z,7.20
2019-03-21T05:47:40.785Z,7.30
2019-03-21T05:49:44.367Z,7.30
2019-03-21T05:51:47.207Z,7.30
2019-03-21T05:53:50.760Z,7.40
2019-03-21T05:55:53.551Z,7.40
2019-03-21T05:57:57.135Z,7.50
2019-03-21T05:59:59.909Z,7.60
2019-03-21T06:02:03.639Z,7.60
2019-03-21T06:04:07.276Z,7.70
2019-03-21T06:06:11.635Z,7.80
2019-03-21T06:08:24.472Z,7.80
2019-03-21T06:10:28.213Z,7.90
2019-03-21T06:12:33.357Z,7.90
2019-03-21T06:14:51.869Z,7.90
2019-03-21T06:16:55.434Z,7.90
2019-03-21T06:19:02.536Z,7.90
2019-03-21T06:21:27.550Z,8.00
2019-03-21T06:23:40.108Z,8.00
2019-03-21T06:25:49.637Z,8.00
2019-03-21T06:27:53.232Z,8.10
2019-03-21T06:29:56.186Z,8.20
2019-03-21T06:31:59.759Z,8.20
2019-03-21T06:34:02.800Z,8.20
2019-03-21T06:36:06.315Z,8.20
2019-03-21T06:38:09.102Z,8.20
2019-03-21T06:40:12.767Z,8.20
2019-03-21T06:42:16.330Z,8.20
2019-03-21T06:44:19.106Z,8.30
2019-03-21T06:46:22.697Z,8.30
2019-03-21T06:48:25.472Z,8.30
2019-03-21T06:50:29.203Z,8.40
2019-03-21T06:52:32.002Z,8.40
2019-03-21T06:54:35.566Z,8.40
2019-03-21T06:56:38.381Z,8.50
2019-03-21T06:58:41.952Z,8.50
2019-03-21T07:00:44.983Z,8.60
2019-03-21T07:02:48.535Z,8.60
2019-03-21T07:04:51.327Z,8.60
2019-03-21T07:06:54.956Z,8.60
2019-03-21T07:08:57.780Z,8.70
2019-03-21T07:11:04.289Z,8.70
2019-03-21T07:13:07.938Z,8.80
2019-03-21T07:15:11.183Z,8.80
2019-03-21T07:17:17.551Z,8.80
2019-03-21T07:19:21.151Z,8.90
2019-03-21T07:21:31.743Z,8.90
2019-03-21T07:23:35.329Z,8.90
2019-03-21T07:25:38.107Z,8.90
2019-03-21T07:27:41.771Z,8.90
2019-03-21T07:29:45.334Z,9.00
2019-03-21T07:31:48.127Z,9.00
2019-03-21T07:33:51.691Z,9.00
2019-03-21T07:35:54.500Z,9.10
2019-03-21T07:37:58.169Z,9.20
2019-03-21T07:40:01.733Z,9.20
2019-03-21T07:42:04.580Z,9.30
2019-03-21T07:44:08.173Z,9.30
2019-03-21T07:46:10.961Z,9.30
2019-03-21T07:48:14.558Z,9.20
2019-03-21T07:50:17.368Z,9.20
2019-03-21T07:52:20.959Z,9.20
2019-03-21T07:54:23.771Z,9.30
2019-03-21T07:56:27.327Z,9.40
2019-03-21T07:58:30.116Z,9.40
2019-03-21T08:00:33.713Z,9.40
2019-03-21T08:02:36.512Z,9.30
2019-03-21T08:04:40.747Z,9.20
2019-03-21T08:06:44.324Z,9.30
2019-03-21T08:08:47.107Z,9.30
2019-03-21T08:10:50.708Z,9.30
2019-03-21T08:12:53.503Z,9.30
2019-03-21T08:14:57.181Z,9.40
2019-03-21T08:17:00.786Z,9.50
2019-03-21T08:19:03.639Z,9.50
2019-03-21T08:21:07.307Z,9.50
2019-03-21T08:23:10.016Z,9.70
2019-03-21T08:25:13.834Z,9.70
2019-03-21T08:27:17.405Z,9.80
2019-03-21T08:29:20.352Z,9.70
2019-03-21T08:31:24.226Z,9.80
2019-03-21T08:33:28.012Z,9.90
2019-03-21T08:35:31.875Z,10.00
2019-03-21T08:37:35.586Z,10.10
2019-03-21T08:39:39.278Z,10.10
2019-03-21T08:41:42.857Z,10.20
2019-03-21T08:43:45.674Z,10.10
2019-03-21T08:45:49.330Z,10.10
2019-03-21T08:47:52.253Z,10.10
2019-03-21T08:49:56.024Z,10.10
2019-03-21T08:51:59.663Z,10.10
2019-03-21T08:54:03.458Z,10.20
2019-03-21T08:56:07.144Z,10.20
2019-03-21T08:58:09.892Z,10.20
2019-03-21T09:00:15.126Z,10.20
2019-03-21T09:02:18.756Z,10.20
2019-03-21T09:04:21.658Z,10.20
2019-03-21T09:06:25.307Z,10.20
2019-03-21T09:08:28.211Z,10.30
2019-03-21T09:10:34.335Z,10.30
2019-03-21T09:12:37.292Z,10.40
2019-03-21T09:14:40.124Z,10.20
2019-03-21T09:16:43.831Z,10.20
2019-03-21T09:18:46.626Z,10.10
2019-03-21T09:20:50.280Z,10.10
2019-03-21T09:22:53.181Z,10.20
2019-03-21T09:24:57.035Z,10.20
2019-03-21T09:27:00.700Z,10.20
2019-03-21T09:29:03.613Z,10.20
2019-03-21T09:31:07.295Z,10.20
2019-03-21T09:33:10.068Z,10.20
2019-03-21T09:35:13.857Z,10.30
2019-03-21T09:37:17.422Z,10.40
2019-03-21T09:39:20.270Z,10.40
2019-03-21T09:41:23.847Z,10.60
2019-03-21T09:43:26.696Z,10.70
2019-03-21T09:45:30.451Z,10.70
2019-03-21T09:47:34.045Z,10.80
2019-03-21T09:49:36.831Z,10.80
2019-03-21T09:51:40.404Z,10.90
2019-03-21T09:53:43.216Z,11.00
2019-03-21T09:55:46.826Z,10.90
2019-03-21T09:57:49.602Z,10.70
2019-03-21T09:59:53.169Z,10.70
2019-03-21T10:01:56.031Z,10.60
2019-03-21T10:03:59.601Z,10.70
2019-03-21T10:06:02.376Z,10.70
2019-03-21T10:08:06.033Z,10.80
2019-03-21T10:10:10.443Z,11.00
2019-03-21T10:12:14.016Z,11.10
2019-03-21T10:14:16.870Z,11.20
2019-03-21T10:16:20.448Z,11.30
2019-03-21T10:18:23.268Z,11.20
2019-03-21T10:20:27.337Z,11.10
2019-03-21T10:22:30.899Z,11.20
2019-03-21T10:24:33.721Z,11.10
2019-03-21T10:26:37.307Z,11.20
2019-03-21T10:28:40.165Z,11.30
2019-03-21T10:30:44.191Z,11.20
2019-03-21T10:32:47.760Z,11.30
2019-03-21T10:34:50.540Z,11.50
2019-03-21T10:36:54.136Z,11.60
2019-03-21T10:38:56.955Z,11.50
2019-03-21T10:41:00.543Z,11.60
2019-03-21T10:43:03.424Z,11.70
2019-03-21T10:45:07.324Z,11.70
2019-03-21T10:47:10.989Z,11.60
2019-03-21T10:49:13.819Z,11.70
2019-03-21T10:51:17.451Z,11.70
2019-03-21T10:53:20.277Z,11.70
2019-03-21T10:55:23.850Z,11.60
2019-03-21T10:57:26.640Z,11.70
2019-03-21T10:59:30.224Z,11.80
2019-03-21T11:01:33.004Z,12.00
2019-03-21T11:03:36.598Z,11.90
2019-03-21T11:05:39.491Z,11.90
2019-03-21T11:07:43.066Z,11.70
2019-03-21T11:09:45.870Z,11.50
2019-03-21T11:11:49.513Z,11.50
2019-03-21T11:13:53.948Z,11.60
2019-03-21T11:15:57.564Z,11.70
2019-03-21T11:18:00.343Z,11.70
2019-03-21T11:20:05.895Z,11.70
2019-03-21T11:22:09.496Z,11.70
2019-03-21T11:24:12.336Z,11.90
2019-03-21T11:26:16.079Z,12.00
2019-03-21T11:28:19.725Z,11.90
2019-03-21T11:30:29.410Z,12.00
2019-03-21T11:32:33.013Z,12.10
2019-03-21T11:34:35.862Z,12.10
2019-03-21T11:36:39.479Z,12.10
2019-03-21T11:38:42.262Z,12.00
2019-03-21T11:40:48.278Z,12.10
2019-03-21T11:42:51.178Z,12.00
2019-03-21T11:44:53.975Z,12.10
2019-03-21T11:46:57.550Z,12.10
2019-03-21T11:49:00.370Z,12.20
2019-03-21T11:51:04.086Z,12.10
2019-03-21T11:53:07.704Z,12.20
2019-03-21T11:55:10.680Z,12.20
2019-03-21T11:57:14.258Z,12.30
2019-03-21T11:59:17.078Z,12.20
2019-03-21T12:01:20.661Z,12.20
2019-03-21T12:03:24.480Z,12.10
2019-03-21T12:05:28.229Z,12.10
2019-03-21T12:07:31.796Z,12.10
2019-03-21T12:09:35.424Z,12.30
2019-03-21T12:11:38.252Z,12.50
2019-03-21T12:13:43.088Z,12.50
2019-03-21T12:15:47.066Z,12.60
2019-03-21T12:17:50.632Z,12.70
2019-03-21T12:19:53.416Z,12.90
2019-03-21T12:21:57.009Z,12.80
2019-03-21T12:23:59.835Z,12.70
2019-03-21T12:26:03.656Z,12.60
2019-03-21T12:28:07.238Z,12.70
2019-03-21T12:30:11.522Z,12.90
2019-03-21T12:32:15.096Z,12.80
2019-03-21T12:34:17.902Z,12.80
2019-03-21T12:36:21.540Z,12.70
2019-03-21T12:38:24.354Z,12.90
2019-03-21T12:40:28.323Z,13.00
2019-03-21T12:42:31.892Z,13.00
2019-03-21T12:44:35.575Z,13.10
2019-03-21T12:46:39.186Z,13.00
2019-03-21T12:48:41.989Z,12.90
2019-03-21T12:50:45.628Z,12.70
2019-03-21T12:52:48.447Z,12.60
2019-03-21T12:54:52.046Z,12.60
2019-03-21T12:56:54.925Z,12.70
2019-03-21T12:58:58.510Z,12.80
2019-03-21T13:01:01.331Z,12.80
2019-03-21T13:03:05.266Z,13.00
2019-03-21T13:05:10.747Z,13.10
2019-03-21T13:07:14.945Z,13.20
2019-03-21T13:09:18.775Z,13.10
2019-03-21T13:11:22.390Z,13.20
2019-03-21T13:13:25.182Z,13.40
2019-03-21T13:15:30.230Z,13.30
2019-03-21T13:17:34.136Z,13.20
2019-03-21T13:19:36.914Z,13.00
2019-03-21T13:21:40.513Z,13.10
2019-03-21T13:23:43.345Z,13.30
2019-03-21T13:25:46.903Z,13.50
2019-03-21T13:27:50.475Z,13.70
2019-03-21T13:29:53.275Z,13.50
2019-03-21T13:31:56.923Z,13.60
2019-03-21T13:33:59.723Z,13.70
2019-03-21T13:36:03.966Z,13.70
2019-03-21T13:38:07.619Z,13.60
2019-03-21T13:40:10.532Z,13.60
2019-03-21T13:42:14.095Z,13.70
2019-03-21T13:44:17.727Z,13.80
2019-03-21T13:46:20.554Z,13.80
2019-03-21T13:48:24.119Z,13.70
2019-03-21T13:50:27.764Z,13.70
2019-03-21T13:52:30.561Z,13.60
2019-03-21T13:54:34.147Z,13.40
2019-03-21T13:56:38.434Z,13.30
2019-03-21T13:58:42.412Z,13.30
2019-03-21T14:00:46.015Z,13.30
2019-03-21T14:02:49.757Z,13.30
2019-03-21T14:04:53.392Z,13.50
2019-03-21T14:06:56.176Z,13.50
2019-03-21T14:08:59.839Z,13.70
2019-03-21T14:11:02.626Z,13.80
2019-03-21T14:13:06.616Z,14.00
2019-03-21T14:15:15.398Z,14.00
2019-03-21T14:17:22.122Z,13.80
2019-03-21T14:19:24.310Z,14.00
2019-03-21T14:21:27.099Z,13.80
2019-03-21T14:23:42.461Z,13.70
2019-03-21T14:25:35.991Z,13.70
2019-03-21T14:27:38.734Z,13.90
2019-03-21T14:29:42.311Z,13.90
2019-03-21T14:31:45.915Z,14.10
2019-03-21T14:33:48.711Z,14.10
2019-03-21T14:35:52.283Z,14.00
2019-03-21T14:37:55.892Z,14.00
2019-03-21T14:39:58.753Z,14.10
2019-03-21T14:42:02.497Z,14.30
2019-03-21T14:44:07.126Z,14.40
2019-03-21T14:46:10.947Z,14.40
2019-03-21T14:48:13.726Z,14.20
2019-03-21T14:50:17.569Z,14.10
2019-03-21T14:52:21.143Z,13.90
2019-03-21T14:54:24.709Z,13.70
2019-03-21T14:56:27.526Z,13.70
2019-03-21T14:58:31.087Z,13.70
2019-03-21T15:00:34.666Z,13.80
2019-03-21T15:02:37.536Z,13.90
2019-03-21T15:04:41.271Z,13.70
2019-03-21T15:06:44.840Z,13.80
2019-03-21T15:08:48.456Z,13.80
2019-03-21T15:10:51.319Z,13.90
2019-03-21T15:12:55.122Z,13.80
2019-03-21T15:14:58.708Z,14.10
2019-03-21T15:17:02.293Z,14.40
2019-03-21T15:19:05.124Z,14.60
2019-03-21T15:21:08.868Z,15.10
2019-03-21T15:23:12.437Z,15.30
2019-03-21T15:25:16.583Z,15.60
2019-03-21T15:27:20.191Z,15.60
2019-03-21T15:29:23.025Z,15.80
2019-03-21T15:31:26.595Z,15.90
2019-03-21T15:33:29.387Z,15.80
2019-03-21T15:35:33.025Z,16.00
2019-03-21T15:37:36.596Z,15.90
2019-03-21T15:39:40.167Z,15.90
2019-03-21T15:41:42.975Z,15.90
2019-03-21T15:43:46.534Z,15.90
2019-03-21T15:45:50.191Z,15.70
2019-03-21T15:47:52.992Z,15.70
2019-03-21T15:49:56.614Z,16.00
2019-03-21T15:51:59.427Z,15.90
2019-03-21T15:54:03.068Z,16.00
2019-03-21T15:56:05.878Z,15.90
2019-03-21T15:58:09.528Z,15.90
2019-03-21T16:00:16.241Z,15.80
2019-03-21T16:02:19.794Z,15.70
2019-03-21T16:04:23.436Z,15.40
2019-03-21T16:06:26.238Z,15.20
2019-03-21T16:08:29.812Z,14.80
2019-03-21T16:10:33.415Z,14.70
2019-03-21T16:12:36.254Z,14.40
2019-03-21T16:14:39.796Z,14.20
2019-03-21T16:16:42.586Z,14.00
2019-03-21T16:18:46.170Z,13.80
2019-03-21T16:20:49.736Z,13.60
2019-03-21T16:22:52.561Z,13.60
2019-03-21T16:24:56.146Z,13.50
2019-03-21T16:26:58.939Z,13.40
2019-03-21T16:29:02.509Z,13.40
2019-03-21T16:31:06.152Z,13.30
2019-03-21T16:33:09.016Z,13.30
2019-03-21T16:35:12.842Z,13.30
2019-03-21T16:37:16.418Z,13.30
2019-03-21T16:39:20.012Z,13.30
2019-03-21T16:41:22.840Z,13.20
2019-03-21T16:43:26.377Z,13.20
2019-03-21T16:45:30.052Z,13.00
2019-03-21T16:47:33.617Z,12.90
2019-03-21T16:49:37.221Z,12.90
2019-03-21T16:51:40.039Z,12.80
2019-03-21T16:53:43.990Z,12.70
2019-03-21T16:55:47.680Z,12.70
2019-03-21T16:57:51.292Z,12.60
2019-03-21T16:59:54.089Z,12.40
2019-03-21T17:01:57.697Z,12.30
2019-03-21T17:04:00.498Z,12.20
2019-03-21T17:06:04.241Z,12.10
2019-03-21T17:08:11.638Z,11.90
2019-03-21T17:10:14.753Z,11.90
2019-03-21T17:12:18.313Z,11.80
2019-03-21T17:14:21.139Z,11.70
2019-03-21T17:16:25.704Z,11.60
2019-03-21T17:18:28.541Z,11.50
2019-03-21T17:20:32.120Z,11.50
2019-03-21T17:22:34.972Z,11.40
2019-03-21T17:24:38.563Z,11.30
2019-03-21T17:26:41.359Z,11.40
2019-03-21T17:28:44.939Z,11.30
2019-03-21T17:30:47.760Z,11.20
2019-03-21T17:32:51.394Z,11.00
2019-03-21T17:34:54.215Z,10.90
2019-03-21T17:36:57.795Z,10.80
2019-03-21T17:39:00.587Z,10.70
2019-03-21T17:41:04.337Z,10.60
2019-03-21T17:43:07.901Z,10.50
2019-03-21T17:45:12.363Z,10.40
2019-03-21T17:47:15.274Z,10.30
2019-03-21T17:49:18.846Z,10.20
2019-03-21T17:51:21.663Z,10.20
2019-03-21T17:53:25.240Z,10.20
2019-03-21T17:55:28.024Z,10.10
2019-03-21T17:57:34.699Z,10.00
2019-03-21T17:59:36.917Z,10.00
2019-03-21T18:01:39.694Z,9.90
2019-03-21T18:03:43.468Z,9.80
2019-03-21T18:05:47.030Z,9.80
2019-03-21T18:07:49.886Z,9.80
2019-03-21T18:09:53.471Z,9.70
2019-03-21T18:11:56.264Z,9.60
2019-03-21T18:13:59.815Z,9.60
2019-03-21T18:16:02.632Z,9.50
2019-03-21T18:18:06.274Z,9.50
2019-03-21T18:20:09.048Z,9.40
2019-03-21T18:22:12.647Z,9.30
2019-03-21T18:24:15.443Z,9.30
2019-03-21T18:26:19.077Z,9.20
2019-03-21T18:28:21.865Z,9.20
2019-03-21T18:30:25.570Z,9.10
2019-03-21T18:32:29.152Z,9.10
2019-03-21T18:34:31.991Z,9.10
2019-03-21T18:36:35.666Z,9.10
2019-03-21T18:38:39.343Z,9.10
2019-03-21T18:40:43.170Z,9.10
2019-03-21T18:42:46.876Z,9.00
2019-03-21T18:44:50.649Z,8.90
2019-03-21T18:46:54.230Z,8.80
2019-03-21T18:48:57.021Z,8.90
2019-03-21T18:51:00.671Z,8.90
2019-03-21T18:53:03.537Z,9.00
2019-03-21T18:55:08.820Z,9.00
2019-03-21T18:57:12.390Z,8.90
2019-03-21T18:59:15.174Z,8.80
2019-03-21T19:01:18.864Z,8.60
2019-03-21T19:03:23.623Z,8.50
2019-03-21T19:05:27.136Z,8.50
2019-03-21T19:07:29.911Z,8.50
2019-03-21T19:09:33.592Z,8.40
2019-03-21T19:11:37.292Z,8.30
2019-03-21T19:13:40.889Z,8.30
2019-03-21T19:15:43.684Z,8.30
2019-03-21T19:17:47.351Z,8.20
2019-03-21T19:19:50.933Z,8.20
2019-03-21T19:21:53.710Z,8.10
2019-03-21T19:23:57.342Z,8.10
2019-03-21T19:26:00.103Z,8.00
2019-03-21T19:28:03.862Z,8.10
2019-03-21T19:30:12.975Z,8.10
2019-03-21T19:32:16.543Z,8.20
2019-03-21T19:34:19.340Z,8.10
2019-03-21T19:36:22.988Z,8.00
2019-03-21T19:38:26.674Z,7.80
2019-03-21T19:40:30.393Z,7.80
2019-03-21T19:42:34.045Z,7.80
2019-03-21T19:44:37.659Z,7.80
2019-03-21T19:46:40.446Z,7.80
2019-03-21T19:48:50.066Z,7.70
2019-03-21T19:50:49.351Z,7.70
2019-03-21T19:52:52.185Z,7.60
2019-03-21T19:54:55.886Z,7.70
2019-03-21T19:56:59.996Z,7.80
2019-03-21T19:59:03.649Z,7.80
2019-03-21T20:01:07.441Z,7.70
2019-03-21T20:03:11.021Z,7.60
2019-03-21T20:05:14.522Z,7.60
2019-03-21T20:07:18.111Z,7.60
2019-03-21T20:09:21.831Z,7.50
2019-03-21T20:11:25.462Z,7.40
2019-03-21T20:13:29.173Z,7.40
2019-03-21T20:15:32.727Z,7.30
2019-03-21T20:17:35.746Z,7.30
2019-03-21T20:19:39.345Z,7.30
2019-03-21T20:21:48.047Z,7.30
2019-03-21T20:23:51.030Z,7.30
2019-03-21T20:25:53.961Z,7.30
2019-03-21T20:27:57.561Z,7.20
2019-03-21T20:30:00.423Z,7.10
2019-03-21T20:32:04.011Z,7.10
2019-03-21T20:34:07.684Z,7.10
2019-03-21T20:36:11.364Z,7.20
2019-03-21T20:38:14.935Z,7.30
2019-03-21T20:40:18.441Z,7.20
2019-03-21T20:42:22.058Z,7.10
2019-03-21T20:44:25.662Z,7.10
2019-03-21T20:46:28.508Z,7.10
2019-03-21T20:48:31.005Z,7.20
2019-03-21T20:50:34.623Z,7.10
2019-03-21T20:52:38.269Z,7.10
2019-03-21T20:54:41.867Z,7.00
2019-03-21T20:56:44.672Z,6.90
2019-03-21T20:58:48.311Z,6.90
2019-03-21T21:00:52.165Z,6.90
2019-03-21T21:02:55.878Z,6.80
2019-03-21T21:04:59.444Z,6.80
2019-03-21T21:07:02.273Z,6.80
2019-03-21T21:09:07.526Z,6.70
2019-03-21T21:11:11.122Z,6.70
2019-03-21T21:13:13.952Z,6.70
2019-03-21T21:15:18.253Z,6.70
2019-03-21T21:17:21.870Z,6.70
2019-03-21T21:19:25.478Z,6.70
2019-03-21T21:21:28.258Z,6.70
2019-03-21T21:23:31.858Z,6.70
2019-03-21T21:25:34.664Z,6.60
2019-03-21T21:27:48.649Z,6.50
2019-03-21T21:29:43.526Z,6.50
2019-03-21T21:31:46.334Z,6.50
2019-03-21T21:33:50.076Z,6.60
2019-03-21T21:35:53.739Z,6.60
2019-03-21T21:37:57.316Z,6.50
2019-03-21T21:40:00.196Z,6.30
2019-03-21T21:42:03.996Z,6.20
2019-03-21T21:44:07.555Z,6.30
2019-03-21T21:46:10.349Z,6.40
2019-03-21T21:48:13.988Z,6.40
2019-03-21T21:50:18.603Z,6.40
2019-03-21T21:52:22.193Z,6.40
2019-03-21T21:54:27.597Z,6.40
2019-03-21T21:56:31.158Z,6.30
2019-03-21T21:58:34.365Z,6.20
2019-03-21T22:00:37.928Z,6.20
2019-03-21T22:02:40.724Z,6.20
2019-03-21T22:04:44.359Z,6.20
2019-03-21T22:06:47.089Z,6.20
2019-03-21T22:08:50.699Z,6.10
2019-03-21T22:10:54.380Z,6.10
2019-03-21T22:12:58.031Z,6.10
2019-03-21T22:15:00.766Z,6.10
2019-03-21T22:17:04.338Z,6.00
2019-03-21T22:19:07.148Z,6.00
2019-03-21T22:21:10.729Z,6.00
2019-03-21T22:23:13.524Z,6.10
2019-03-21T22:25:17.280Z,6.10
2019-03-21T22:27:20.872Z,6.10
2019-03-21T22:29:23.964Z,6.00
2019-03-21T22:31:28.921Z,6.00
2019-03-21T22:33:32.505Z,6.00
2019-03-21T22:35:35.402Z,6.00
2019-03-21T22:37:39.132Z,5.90
2019-03-21T22:39:42.695Z,5.80
2019-03-21T22:41:45.527Z,5.70
2019-03-21T22:43:49.099Z,5.60
2019-03-21T22:45:51.882Z,5.70
2019-03-21T22:47:55.486Z,5.80
2019-03-21T22:49:59.086Z,5.90
2019-03-21T22:52:01.900Z,6.00
2019-03-21T22:54:05.554Z,6.00
2019-03-21T22:56:09.114Z,5.90
2019-03-21T22:58:11.970Z,5.90
2019-03-21T23:00:42.291Z,6.00
2019-03-21T23:02:46.031Z,6.00
2019-03-21T23:04:49.697Z,6.00
2019-03-21T23:06:53.255Z,5.90
2019-03-21T23:08:56.103Z,5.80
2019-03-21T23:10:59.662Z,5.70
2019-03-21T23:13:02.518Z,5.60
2019-03-21T23:15:08.667Z,5.60
2019-03-21T23:17:12.240Z,5.60
2019-03-21T23:19:15.031Z,5.50
2019-03-21T23:21:18.825Z,5.50
2019-03-21T23:23:22.423Z,5.50
2019-03-21T23:25:25.999Z,5.50
2019-03-21T23:27:28.799Z,5.40
2019-03-21T23:29:32.372Z,5.40
2019-03-21T23:31:35.159Z,5.40
2019-03-21T23:33:38.732Z,5.30
2019-03-21T23:35:41.546Z,5.30
2019-03-21T23:37:45.196Z,5.40
2019-03-21T23:39:48.968Z,5.40
2019-03-21T23:41:52.532Z,5.40
2019-03-21T23:43:55.336Z,5.40
2019-03-21T23:45:58.975Z,5.30
2019-03-21T23:48:02.555Z,5.30
2019-03-21T23:50:11.258Z,5.30
2019-03-21T23:52:14.820Z,5.20
2019-03-21T23:54:17.626Z,5.10
2019-03-21T23:56:21.219Z,5.10
2019-03-21T23:58:24.791Z,5.20
